Time;durP1;ratioP1;P1;durP2;ratioP2;P2;SDS_P1;SDS_P2;PMS_P1;PMS_P2;Temp;Humidity;BMP_temperature;BMP_pressure;BME280_temperature;BME280_humidity;BME280_pressure;Samples;Min_cycle;Max_cycle;Signal;HPM_P1;HPM_P2
2021/12/05 00:22:33;;;;;;;6.85;1.50;;;;;;;6.18;97.97;99265.69;5020543;28;20056;-66
2021/12/05 00:25:27;;;;;;;7.68;1.70;;;;;;;6.25;97.05;99266.81;5020618;28;20091;-67
2021/12/05 00:43:14;;;;;;;8.48;2.10;;;;;;;6.27;96.50;99271.97;5035098;28;20084;-67
2021/12/05 01:09:37;;;;;;;8.57;1.92;;;;;;;6.27;95.01;99279.91;5022333;28;20047;-66
2021/12/05 01:15:09;;;;;;;6.80;2.13;;;;;;;6.37;94.09;99286.84;5019388;28;20131;-66
2021/12/05 01:18:10;;;;;;;4.57;1.83;;;;;;;6.27;94.80;99280.72;5034413;28;20479;-66
2021/12/05 01:21:04;;;;;;;5.35;1.45;;;;;;;6.17;96.80;99274.59;5007797;28;20099;-66
2021/12/05 01:26:47;;;;;;;8.45;1.50;;;;;;;6.05;99.13;99270.44;5019326;28;20305;-65
2021/12/05 01:45:01;;;;;;;11.27;2.03;;;;;;;5.79;100.00;99306.34;5021770;28;20176;-67
2021/12/05 01:53:56;;;;;;;8.45;2.75;;;;;;;5.22;100.00;99277.13;5034254;28;20122;-67
2021/12/05 01:57:22;;;;;;;6.20;1.90;;;;;;;5.17;100.00;99263.50;5033789;28;20529;-66
2021/12/05 02:11:58;;;;;;;11.75;1.98;;;;;;;5.08;100.00;99255.50;5033419;28;20440;-66
2021/12/05 02:41:56;;;;;;;9.57;2.03;;;;;;;5.00;100.00;99234.22;4977618;28;20471;-68
2021/12/05 02:44:42;;;;;;;3.33;1.00;;;;;;;4.90;100.00;99237.81;5018395;28;20052;-67
2021/12/05 02:47:28;;;;;;;7.45;1.98;;;;;;;4.97;100.00;99231.03;5032658;28;20079;-67
2021/12/05 02:50:12;;;;;;;13.02;2.85;;;;;;;4.99;100.00;99225.47;5017938;28;20083;-67
2021/12/05 02:53:02;;;;;;;8.30;2.20;;;;;;;4.97;100.00;99227.41;5032785;28;20048;-67
2021/12/05 02:55:49;;;;;;;5.25;1.70;;;;;;;4.98;100.00;99222.97;5018417;28;20098;-68
2021/12/05 02:58:41;;;;;;;6.00;2.45;;;;;;;5.00;100.00;99221.84;5032567;28;20481;-67
2021/12/05 03:01:33;;;;;;;9.73;2.22;;;;;;;4.93;100.00;99228.63;5019018;28;20395;-67
2021/12/05 03:04:17;;;;;;;9.43;2.60;;;;;;;4.97;100.00;99226.56;5032620;28;20076;-67
2021/12/05 03:07:07;;;;;;;6.93;1.95;;;;;;;5.04;100.00;99223.25;5017520;28;20088;-67
2021/12/05 03:09:52;;;;;;;8.13;2.38;;;;;;;5.00;100.00;99221.84;5032493;28;20146;-68
2021/12/05 03:12:38;;;;;;;10.27;2.17;;;;;;;5.02;100.00;99221.72;5017599;28;20118;-66
2021/12/05 03:15:22;;;;;;;9.20;2.55;;;;;;;5.08;100.00;99218.53;5017631;28;20469;-66
2021/12/05 03:18:07;;;;;;;4.18;2.28;;;;;;;5.06;100.00;99223.97;5017664;28;20136;-68
2021/12/05 03:20:50;;;;;;;5.53;1.60;;;;;;;4.97;100.00;99226.56;5032396;28;20056;-66
2021/12/05 03:23:36;;;;;;;;;;;;;;;4.98;100.00;99229.09;5032726;28;20052;-67
2021/12/05 03:26:21;;;;;;;;;;;;;;;5.03;100.00;99229.50;5018018;28;19920;-67
2021/12/05 03:29:08;;;;;;;8.38;1.60;;;;;;;5.10;100.00;99219.22;5007531;28;19928;-68
2021/12/05 03:31:53;;;;;;;6.82;2.13;;;;;;;5.04;100.00;99215.31;5036475;28;20053;-67
2021/12/05 03:34:37;;;;;;;7.00;2.10;;;;;;;4.96;100.00;99214.34;5036396;28;20585;-66
2021/12/05 03:37:21;;;;;;;;;;;;;;;5.00;100.00;99210.44;5036640;28;20048;-66
2021/12/05 03:40:07;;;;;;;6.82;2.33;;;;;;;4.94;100.00;99211.00;5021211;28;19936;-67
2021/12/05 03:42:53;;;;;;;7.00;2.00;;;;;;;4.98;100.00;99201.81;5021067;28;20047;-68
2021/12/05 03:45:41;;;;;;;13.38;2.47;;;;;;;4.95;100.00;99202.94;5021236;28;20096;-67
2021/12/05 03:48:28;;;;;;;5.10;2.17;;;;;;;4.97;100.00;99198.38;5036147;28;20106;-68
2021/12/05 03:51:16;;;;;;;10.15;3.47;;;;;;;4.85;100.00;99201.25;5036579;28;20107;-68
2021/12/05 03:54:00;;;;;;;7.78;2.60;;;;;;;4.89;100.00;99199.16;5036072;28;20136;-68
2021/12/05 03:56:44;;;;;;;6.07;1.75;;;;;;;4.84;100.00;99193.44;5141429;22;20060;-66
2021/12/05 03:59:29;;;;;;;7.68;1.77;;;;;;;4.77;100.00;99194.97;5021197;28;20052;-66
2021/12/05 04:02:13;;;;;;;2.33;1.40;;;;;;;4.79;100.00;99190.38;5021088;28;20121;-65
2021/12/05 04:04:57;;;;;;;;;;;;;;;4.84;100.00;99196.94;5007545;28;20056;-65
2021/12/05 04:07:41;;;;;;;7.70;1.53;;;;;;;4.75;100.00;99200.38;5034737;28;19946;-66
2021/12/05 04:10:27;;;;;;;4.53;2.00;;;;;;;4.77;100.00;99200.25;5020727;28;20505;-66
2021/12/05 04:13:12;;;;;;;5.95;2.55;;;;;;;4.77;100.00;99198.44;5020537;28;20483;-66
2021/12/05 04:15:57;;;;;;;7.03;1.70;;;;;;;4.76;100.00;99198.59;5020536;28;20115;-66
2021/12/05 04:18:42;;;;;;;5.15;1.80;;;;;;;4.75;100.00;99188.97;5006831;28;20049;-66
2021/12/05 04:21:26;;;;;;;6.75;1.75;;;;;;;4.71;100.00;99188.41;5006586;28;20502;-66
2021/12/05 04:24:11;;;;;;;4.07;2.13;;;;;;;4.73;100.00;99188.25;5020772;28;20104;-66
2021/12/05 04:26:55;;;;;;;4.45;2.05;;;;;;;4.74;100.00;99189.94;5020420;28;20061;-66
2021/12/05 04:29:40;;;;;;;5.47;2.60;;;;;;;4.66;100.00;99189.78;5035583;28;20071;-66
2021/12/05 04:32:24;;;;;;;;;;;;;;;4.71;100.00;99187.56;5020780;28;20085;-66
2021/12/05 04:35:08;;;;;;;5.93;1.92;;;;;;;4.68;100.00;99193.13;5034699;28;19920;-66
2021/12/05 04:37:53;;;;;;;8.10;2.78;;;;;;;4.70;100.00;99185.91;5020600;28;20045;-66
2021/12/05 04:40:36;;;;;;;;;;;;;;;4.83;100.00;99189.13;5035930;28;20110;-66
2021/12/05 04:43:21;;;;;;;4.87;2.07;;;;;;;4.78;100.00;99196.63;5034375;28;20242;-66
2021/12/05 04:46:18;;;;;;;7.50;2.05;;;;;;;4.73;100.00;99199.69;5035295;28;20278;-65
2021/12/05 04:49:05;;;;;;;3.35;1.85;;;;;;;4.79;100.00;99200.94;5035283;28;20043;-66
2021/12/05 04:51:50;;;;;;;5.72;2.17;;;;;;;4.79;100.00;99196.47;5020219;28;20183;-65
2021/12/05 04:54:34;;;;;;;3.22;1.73;;;;;;;4.73;100.00;99197.03;5020140;28;20059;-66
2021/12/05 04:57:18;;;;;;;5.60;2.00;;;;;;;4.74;100.00;99197.84;5019909;28;20052;-66
2021/12/05 05:00:09;;;;;;;3.75;2.05;;;;;;;4.79;100.00;99187.75;5034957;28;20091;-66
2021/12/05 05:02:54;;;;;;;4.75;1.67;;;;;;;4.81;100.00;99197.22;5005986;28;20087;-66
2021/12/05 05:05:42;;;;;;;7.50;1.85;;;;;;;4.77;100.00;99189.69;5019986;28;20064;-66
2021/12/05 05:08:29;;;;;;;5.18;1.25;;;;;;;4.68;100.00;99183.38;5019912;28;20052;-65
2021/12/05 05:11:16;;;;;;;6.63;1.70;;;;;;;4.65;100.00;99188.09;5006117;28;20061;-65
2021/12/05 05:14:00;;;;;;;3.15;1.80;;;;;;;4.60;100.00;99188.53;5006227;28;20138;-65
2021/12/05 05:16:47;;;;;;;8.70;2.10;;;;;;;4.69;100.00;99190.34;5019453;28;20521;-65
2021/12/05 05:19:38;;;;;;;5.43;1.98;;;;;;;4.74;100.00;99182.00;5020125;28;20083;-66
2021/12/05 05:22:33;;;;;;;6.35;1.90;;;;;;;4.72;100.00;99195.38;5020669;28;20084;-66
2021/12/05 05:28:57;;;;;;;8.93;1.75;;;;;;;4.75;100.00;99194.25;5034482;28;20352;-65
2021/12/05 05:40:35;;;;;;;5.47;1.48;;;;;;;4.71;100.00;99190.22;5022014;28;20415;-66
2021/12/05 05:43:30;;;;;;;4.75;1.88;;;;;;;4.70;100.00;99188.53;5034024;28;20095;-65
2021/12/05 05:46:17;;;;;;;3.63;1.02;;;;;;;4.66;100.00;99200.34;5020971;28;20115;-66
2021/12/05 05:49:34;;;;;;;6.05;1.67;;;;;;;4.61;100.00;99191.97;5019666;28;20523;-66
2021/12/05 05:52:19;;;;;;;4.97;2.08;;;;;;;4.61;100.00;99190.19;5023741;28;20126;-65
2021/12/05 05:55:04;;;;;;;3.78;1.20;;;;;;;4.55;100.00;99193.34;5018868;28;20063;-65
2021/12/05 06:00:52;;;;;;;8.30;1.70;;;;;;;4.51;100.00;99196.38;5019869;28;20047;-66
2021/12/05 06:03:36;;;;;;;5.57;1.58;;;;;;;4.50;100.00;99195.56;5020605;28;20055;-66
2021/12/05 06:06:22;;;;;;;;;;;;;;;4.58;100.00;99197.53;5019171;28;20057;-66
2021/12/05 06:09:08;;;;;;;7.22;1.67;;;;;;;4.56;100.00;99197.66;5033899;28;20305;-66
2021/12/05 06:11:52;;;;;;;7.65;2.10;;;;;;;4.60;100.00;99201.72;5018803;28;20414;-66
2021/12/05 06:14:35;;;;;;;;;;;;;;;4.70;100.00;99185.91;5005269;28;20052;-66
2021/12/05 06:17:19;;;;;;;4.93;2.00;;;;;;;4.67;100.00;99196.75;5032611;28;19939;-66
2021/12/05 06:20:24;;;;;;;;;;;;;;;4.77;100.00;99187.03;5005119;28;20520;-65
2021/12/05 06:23:09;;;;;;;4.13;1.27;;;;;;;4.69;100.00;99200.88;5018603;28;19920;-66
2021/12/05 06:25:54;;;;;;;3.70;1.83;;;;;;;4.73;100.00;99202.31;5018499;28;20501;-66
2021/12/05 06:38:04;;;;;;;5.72;2.05;;;;;;;4.69;100.00;99210.63;5033068;28;20052;-66
2021/12/05 06:49:06;;;;;;;8.55;1.90;;;;;;;4.70;100.00;99221.03;5018346;28;20521;-66
2021/12/05 06:51:50;;;;;;;8.65;2.25;;;;;;;4.79;100.00;99219.44;5033073;28;20513;-66
2021/12/05 06:54:35;;;;;;;9.35;2.25;;;;;;;4.79;100.00;99222.88;5033079;28;20505;-66
2021/12/05 06:57:20;;;;;;;4.63;2.00;;;;;;;4.86;100.00;99225.84;5017763;28;20057;-66
2021/12/05 07:00:07;;;;;;;4.05;1.85;;;;;;;4.85;100.00;99226.78;5017796;28;20552;-66
2021/12/05 07:02:52;;;;;;;10.45;3.55;;;;;;;4.73;100.00;99217.31;5031930;28;20064;-65
2021/12/05 07:08:26;;;;;;;3.90;1.73;;;;;;;4.61;100.00;99218.38;5031995;28;19936;-66
2021/12/05 07:11:26;;;;;;;7.55;2.03;;;;;;;4.63;100.00;99219.91;5032967;28;20055;-66
2021/12/05 07:14:31;;;;;;;5.75;1.98;;;;;;;4.56;100.00;99215.31;5019466;28;20513;-65
2021/12/05 07:20:33;;;;;;;5.13;1.80;;;;;;;4.45;100.00;99218.84;5019568;28;20046;-65
2021/12/05 07:23:38;;;;;;;4.32;1.30;;;;;;;4.50;100.00;99214.03;5006722;28;20095;-64
2021/12/05 07:26:42;;;;;;;3.72;1.60;;;;;;;4.58;100.00;99218.66;5032846;28;20460;-65
2021/12/05 07:44:29;;;;;;;5.72;1.67;;;;;;;5.02;100.00;99235.75;5032736;28;20053;-65
2021/12/05 07:47:18;;;;;;;3.58;1.42;;;;;;;5.15;100.00;99236.34;5017442;28;20099;-65
2021/12/05 07:50:07;;;;;;;5.20;1.33;;;;;;;5.22;100.00;99241.94;5004481;28;20115;-66
2021/12/05 07:52:52;;;;;;;2.30;0.90;;;;;;;5.20;100.00;99252.63;5017814;28;20080;-66
2021/12/05 07:55:42;;;;;;;4.72;1.42;;;;;;;5.31;100.00;99247.25;5017226;28;20088;-65
2021/12/05 07:58:47;;;;;;;7.35;1.58;;;;;;;5.43;100.00;99240.03;5032131;28;20049;-66
2021/12/05 08:16:49;;;;;;;3.67;1.25;;;;;;;5.66;100.00;99238.81;5035495;28;20095;-66
2021/12/05 08:19:33;;;;;;;1.80;1.00;;;;;;;5.65;100.00;99245.88;5035800;28;20107;-65
2021/12/05 08:22:17;;;;;;;;;;;;;;;5.72;100.00;99238.22;5020921;28;20072;-66
2021/12/05 08:25:09;;;;;;;3.40;1.20;;;;;;;5.74;100.00;99241.59;5034719;28;20286;-65
2021/12/05 08:28:05;;;;;;;2.28;1.10;;;;;;;5.74;100.00;99239.78;5035274;28;20040;-66
2021/12/05 08:30:59;;;;;;;2.25;0.93;;;;;;;5.82;100.00;99237.31;5022317;28;20041;-66
2021/12/05 08:37:28;;;;;;;6.00;1.63;;;;;;;5.91;100.00;99233.84;5035773;28;20399;-66
2021/12/05 08:41:11;;;;;;;3.58;1.15;;;;;;;5.93;100.00;99233.69;5035733;28;20099;-66
2021/12/05 09:23:31;;;;;;;2.75;1.35;;;;;;;5.82;100.00;99274.34;5034659;28;20088;-65
2021/12/05 10:08:16;;;;;;;2.90;1.30;;;;;;;5.85;100.00;99295.22;5021187;28;20106;-65
2021/12/05 10:14:15;;;;;;;3.60;1.27;;;;;;;5.86;100.00;99302.16;5033022;28;20003;-64
2021/12/05 10:38:24;;;;;;;3.30;1.30;;;;;;;6.88;100.00;99266.06;5033522;28;20103;-65
2021/12/05 10:44:17;;;;;;;3.05;1.70;;;;;;;6.84;100.00;99285.06;5020027;28;20044;-64
2021/12/05 10:47:02;;;;;;;4.43;1.20;;;;;;;6.76;100.00;99279.66;5004169;28;20106;-66
2021/12/05 10:49:46;;;;;;;3.08;1.30;;;;;;;6.78;100.00;99277.69;5018203;28;20048;-66
2021/12/05 10:52:30;;;;;;;2.42;1.65;;;;;;;6.70;100.00;99278.44;5017739;28;20056;-66
2021/12/05 10:55:28;;;;;;;3.45;1.38;;;;;;;7.09;100.00;99279.13;5018033;28;20052;-66
2021/12/05 10:58:11;;;;;;;3.13;1.48;;;;;;;7.08;100.00;99272.97;5018206;28;20049;-66
2021/12/05 11:01:13;;;;;;;2.95;1.33;;;;;;;7.56;100.00;99273.56;5032872;28;20402;-66
2021/12/05 11:04:05;;;;;;;1.77;1.40;;;;;;;7.59;97.85;99267.94;5033011;28;20137;-66
2021/12/05 11:06:59;;;;;;;4.97;1.33;;;;;;;7.50;96.97;99271.50;5003800;28;20435;-66
2021/12/05 11:09:48;;;;;;;5.18;2.10;;;;;;;7.69;96.92;99263.41;5017965;28;20090;-66
2021/12/05 11:12:35;;;;;;;4.47;1.13;;;;;;;8.00;95.56;99256.75;5003907;28;20049;-66
2021/12/05 11:15:19;;;;;;;3.38;1.15;;;;;;;7.80;93.40;99260.53;5017922;28;20056;-66
2021/12/05 11:18:03;;;;;;;2.90;2.20;;;;;;;7.63;95.71;99253.41;5032552;28;20052;-66
2021/12/05 11:20:47;;;;;;;2.38;1.55;;;;;;;7.49;95.55;99263.69;5003995;28;20136;-66
2021/12/05 11:23:31;;;;;;;2.85;1.42;;;;;;;7.55;95.48;99253.31;5004224;28;20049;-66
2021/12/05 11:26:17;;;;;;;4.53;1.85;;;;;;;7.61;95.25;99260.66;5017641;28;20120;-66
2021/12/05 11:29:02;;;;;;;3.67;2.63;;;;;;;7.44;93.01;99250.88;5017554;28;20057;-66
2021/12/05 11:31:51;;;;;;;3.13;1.67;;;;;;;7.53;92.44;99247.34;5017691;28;20048;-66
2021/12/05 11:34:35;;;;;;;2.58;1.40;;;;;;;7.64;90.92;99257.72;5032659;28;20048;-65
2021/12/05 11:37:19;;;;;;;2.85;1.45;;;;;;;7.34;92.19;99257.22;5017383;28;20052;-65
2021/12/05 11:40:07;;;;;;;1.58;1.02;;;;;;;7.39;92.08;99247.84;5032474;28;20056;-65
2021/12/05 11:43:01;;;;;;;4.65;1.45;;;;;;;7.08;92.28;99256.25;5032253;28;20045;-65
2021/12/05 11:45:48;;;;;;;1.98;0.95;;;;;;;6.89;93.36;99264.28;5032628;28;20532;-66
2021/12/05 11:48:38;;;;;;;1.63;1.10;;;;;;;7.14;95.77;99256.50;5033905;28;20044;-65
2021/12/05 11:51:32;;;;;;;3.28;1.40;;;;;;;7.04;94.84;99258.34;5036388;28;20136;-65
2021/12/05 11:54:37;;;;;;;1.55;1.17;;;;;;;7.10;94.77;99259.59;5021171;28;20064;-66
2021/12/05 11:57:27;;;;;;;3.83;1.23;;;;;;;7.02;93.74;99255.03;5021370;28;20044;-66
2021/12/05 12:00:17;;;;;;;2.85;1.35;;;;;;;7.05;93.40;99245.94;5036297;28;20052;-65
2021/12/05 12:03:01;;;;;;;2.38;1.00;;;;;;;6.98;93.81;99240.38;5021275;28;20049;-66
2021/12/05 12:05:48;;;;;;;3.33;1.17;;;;;;;7.04;95.14;99245.09;5020875;28;20076;-66
2021/12/05 12:08:32;;;;;;;2.38;1.27;;;;;;;7.15;96.00;99236.13;5021405;28;20063;-65
2021/12/05 12:11:15;;;;;;;1.88;1.20;;;;;;;7.32;94.33;99241.47;5007351;28;20060;-66
2021/12/05 12:14:00;;;;;;;2.45;1.30;;;;;;;7.42;94.29;99244.91;5020964;28;20045;-66
2021/12/05 12:16:47;;;;;;;3.60;1.40;;;;;;;7.40;94.93;99244.19;5020962;28;20131;-66
2021/12/05 12:19:31;;;;;;;6.78;1.63;;;;;;;7.33;95.12;99234.34;5020730;28;20451;-66
2021/12/05 12:22:19;;;;;;;4.18;1.33;;;;;;;7.38;93.63;99238.22;5020721;28;20072;-66
2021/12/05 12:25:10;;;;;;;5.43;1.83;;;;;;;7.65;94.01;99224.91;5035501;28;20513;-65
2021/12/05 12:27:53;;;;;;;3.38;1.70;;;;;;;8.06;90.52;99219.00;5020682;28;20106;-65
2021/12/05 12:30:42;;;;;;;2.83;1.20;;;;;;;7.79;90.58;99221.72;5007176;28;20479;-65
2021/12/05 12:33:31;;;;;;;4.35;1.63;;;;;;;7.95;90.51;99221.88;5020164;28;20057;-65
2021/12/05 12:36:15;;;;;;;2.35;1.30;;;;;;;7.62;91.38;99226.03;5035415;28;20080;-66
2021/12/05 12:39:04;;;;;;;7.45;1.42;;;;;;;7.81;90.67;99219.75;5020372;28;20179;-65
2021/12/05 12:42:26;;;;;;;3.67;1.30;;;;;;;7.92;88.02;99212.41;5007260;28;20048;-66
2021/12/05 12:45:16;;;;;;;2.78;1.10;;;;;;;8.21;86.71;99210.34;4909189;29;20425;-64
2021/12/05 12:48:02;;;;;;;1.45;1.00;;;;;;;8.62;85.34;99209.63;5020040;28;20048;-66
2021/12/05 12:50:52;;;;;;;3.92;1.40;;;;;;;8.69;83.20;99217.81;5020688;28;20076;-66
2021/12/05 12:53:39;;;;;;;2.78;1.20;;;;;;;8.43;85.24;99217.81;5006617;28;20072;-64
2021/12/05 12:56:24;;;;;;;3.22;1.15;;;;;;;8.30;84.93;99214.75;5005783;28;20052;-65
2021/12/05 12:59:12;;;;;;;2.47;1.40;;;;;;;8.69;83.77;99217.81;5020092;28;20045;-65
2021/12/05 13:10:41;;;;;;;1.83;1.17;;;;;;;12.10;64.08;99195.44;5020908;28;20483;-66
2021/12/05 13:13:27;;;;;;;;;;;;;;;12.70;64.66;99204.22;5020033;28;20040;-65
2021/12/05 13:16:18;;;;;;;3.33;1.27;;;;;;;12.90;62.40;99202.66;5019978;28;19951;-66
2021/12/05 13:19:12;;;;;;;1.98;1.42;;;;;;;13.17;61.18;99202.06;5019577;28;20553;-66
2021/12/05 13:22:06;;;;;;;4.30;1.58;;;;;;;13.72;57.76;99199.63;5020025;28;20068;-64
2021/12/05 13:25:06;;;;;;;2.58;1.30;;;;;;;13.62;57.09;99202.63;5019513;28;20071;-67
2021/12/05 13:27:50;;;;;;;3.10;1.10;;;;;;;13.92;55.32;99196.16;5019947;28;20110;-67
2021/12/05 13:30:34;;;;;;;2.58;1.10;;;;;;;12.76;58.10;99208.84;5019579;28;20052;-66
2021/12/05 13:33:20;;;;;;;1.20;1.00;;;;;;;13.00;60.53;99201.44;5019349;28;20053;-66
2021/12/05 13:36:26;;;;;;;4.25;1.08;;;;;;;13.49;57.00;99201.63;5034092;28;20552;-65
2021/12/05 13:39:31;;;;;;;3.05;1.20;;;;;;;13.83;54.98;99210.69;5019551;28;20084;-66
2021/12/05 13:42:34;;;;;;;4.03;1.20;;;;;;;13.63;54.01;99219.50;5034345;28;20048;-66
2021/12/05 13:45:25;;;;;;;2.00;1.08;;;;;;;13.57;53.64;99220.28;5033010;28;20552;-66
2021/12/05 13:48:15;;;;;;;1.92;1.02;;;;;;;12.91;54.40;99223.06;5005181;28;20446;-66
2021/12/05 13:51:04;;;;;;;2.20;1.17;;;;;;;12.23;57.82;99226.91;5005735;28;20146;-66
2021/12/05 13:53:51;;;;;;;1.75;1.08;;;;;;;12.19;58.08;99221.06;5005150;28;20076;-66
2021/12/05 13:56:35;;;;;;;2.50;1.13;;;;;;;11.59;58.13;99227.34;5033671;28;20049;-66
2021/12/05 13:59:25;;;;;;;2.72;1.08;;;;;;;10.89;61.56;99239.81;5019384;28;20048;-65
2021/12/05 14:02:09;;;;;;;2.75;1.40;;;;;;;10.52;61.71;99241.34;5034073;28;20099;-65
2021/12/05 14:04:53;;;;;;;3.63;1.02;;;;;;;10.55;63.49;99246.34;5034036;28;20075;-66
2021/12/05 14:07:38;;;;;;;3.25;1.23;;;;;;;10.30;63.28;99250.88;5033635;28;20047;-66
2021/12/05 14:10:22;;;;;;;1.98;1.05;;;;;;;10.21;63.40;99253.69;5018643;28;20079;-66
2021/12/05 14:13:06;;;;;;;2.05;0.80;;;;;;;9.79;64.69;99247.63;5033595;28;20199;-66
2021/12/05 14:15:57;;;;;;;1.73;1.00;;;;;;;9.29;67.36;99253.97;5018731;28;20180;-65
2021/12/05 14:18:41;;;;;;;4.20;0.90;;;;;;;9.11;68.74;99253.22;5018583;28;20531;-65
2021/12/05 14:21:26;;;;;;;3.08;1.40;;;;;;;9.01;69.20;99260.50;5018542;28;20095;-65
2021/12/05 14:24:11;;;;;;;1.35;1.00;;;;;;;8.81;70.85;99264.38;5033764;28;20045;-64
2021/12/05 14:26:57;;;;;;;4.00;1.10;;;;;;;8.75;71.70;99259.69;5004429;28;20076;-65
2021/12/05 14:29:43;;;;;;;2.00;1.00;;;;;;;8.71;71.39;99266.28;5018190;28;20124;-64
2021/12/05 14:32:33;;;;;;;2.55;1.00;;;;;;;8.75;72.93;99259.69;5004335;28;20060;-66
2021/12/05 14:35:21;;;;;;;3.47;1.45;;;;;;;8.61;72.80;99262.91;5033042;28;20143;-65
2021/12/05 14:38:07;;;;;;;2.28;0.95;;;;;;;8.40;73.25;99267.72;5018076;28;20052;-65
2021/12/05 14:40:52;;;;;;;3.35;1.10;;;;;;;8.31;74.54;99266.84;5033206;28;20056;-65
2021/12/05 14:43:36;;;;;;;7.65;1.30;;;;;;;8.07;76.22;99281.69;5032937;28;20515;-64
2021/12/05 14:46:20;;;;;;;1.88;0.98;;;;;;;8.11;77.01;99265.31;5018040;28;20056;-65
2021/12/05 14:49:05;;;;;;;1.55;1.00;;;;;;;8.09;78.92;99280.56;5004248;28;20189;-65
2021/12/05 14:51:50;;;;;;;2.15;1.08;;;;;;;8.11;79.84;99285.72;5018019;28;20505;-66
2021/12/05 14:54:36;;;;;;;2.20;1.23;;;;;;;8.09;80.07;99282.38;5032971;28;20048;-66
2021/12/05 14:57:26;;;;;;;1.50;1.17;;;;;;;8.05;80.87;99289.00;5017624;28;20048;-65
2021/12/05 15:00:19;;;;;;;4.30;1.25;;;;;;;7.98;83.08;99285.25;5018070;28;20091;-64
2021/12/05 15:03:13;;;;;;;4.75;1.45;;;;;;;7.88;85.15;99295.97;5032842;28;20060;-65
2021/12/05 15:06:00;;;;;;;2.83;2.03;;;;;;;7.79;86.49;99302.16;5031503;28;20565;-64
2021/12/05 15:08:45;;;;;;;2.92;1.95;;;;;;;7.73;87.75;99304.59;5017869;28;20486;-66
2021/12/05 15:11:29;;;;;;;5.28;1.65;;;;;;;7.62;88.72;99307.44;5017764;28;20065;-65
2021/12/05 15:14:13;;;;;;;6.45;1.70;;;;;;;7.48;90.10;99312.41;5032513;28;20564;-66
2021/12/05 15:17:07;;;;;;;2.78;1.67;;;;;;;7.42;91.43;99310.34;5017647;28;20497;-66
2021/12/05 15:20:01;;;;;;;2.80;1.95;;;;;;;7.30;93.36;99309.69;5033125;28;20045;-65
2021/12/05 15:23:10;;;;;;;3.35;1.80;;;;;;;7.14;94.39;99320.09;5017611;28;20052;-65
2021/12/05 15:25:54;;;;;;;5.70;2.50;;;;;;;6.98;95.33;99327.81;5036480;28;20140;-65
2021/12/05 15:28:39;;;;;;;5.38;1.77;;;;;;;6.85;95.17;99329.94;5036757;28;20509;-66
2021/12/05 15:31:32;;;;;;;6.25;3.70;;;;;;;6.74;95.63;99338.06;5008009;28;20131;-64
2021/12/05 15:34:22;;;;;;;7.35;3.78;;;;;;;6.67;97.27;99347.53;5007775;28;20044;-65
2021/12/05 15:37:11;;;;;;;4.65;3.13;;;;;;;6.55;99.56;99353.97;5007411;28;20533;-65
2021/12/05 15:39:57;;;;;;;5.25;3.03;;;;;;;6.48;100.00;99358.16;5021603;28;20048;-65
2021/12/05 15:42:41;;;;;;;4.80;3.50;;;;;;;6.51;100.00;99352.59;5021506;28;20056;-65
2021/12/05 15:45:25;;;;;;;;;;;;;;;6.56;100.00;99362.78;5021798;28;20107;-66
2021/12/05 15:48:09;;;;;;;5.47;3.13;;;;;;;6.45;100.00;99363.75;5035061;28;19973;-66
2021/12/05 15:50:54;;;;;;;5.15;3.10;;;;;;;6.43;100.00;99359.56;5036477;28;20321;-66
2021/12/05 15:53:39;;;;;;;6.22;3.33;;;;;;;6.38;100.00;99381.16;5021018;28;20182;-66
2021/12/05 15:56:24;;;;;;;5.82;3.28;;;;;;;6.39;100.00;99374.91;5020906;28;20056;-65
2021/12/05 15:59:17;;;;;;;4.80;3.00;;;;;;;6.40;100.00;99376.56;5007002;28;20103;-65
2021/12/05 16:02:06;;;;;;;10.27;4.07;;;;;;;6.38;100.00;99383.78;5022255;28;20410;-65
2021/12/05 16:04:56;;;;;;;8.68;4.22;;;;;;;6.48;100.00;99374.03;5021802;28;20049;-65
2021/12/05 16:07:40;;;;;;;7.75;4.03;;;;;;;6.39;100.00;99380.19;5035585;28;20517;-65
2021/12/05 16:10:24;;;;;;;6.10;3.78;;;;;;;6.34;100.00;99382.41;5007294;28;20052;-65
2021/12/05 16:13:18;;;;;;;6.05;4.78;;;;;;;6.30;100.00;99385.47;5020863;28;20096;-65
2021/12/05 16:16:14;;;;;;;10.05;6.55;;;;;;;6.23;100.00;99387.84;5006634;28;20106;-65
2021/12/05 16:19:03;;;;;;;5.72;3.53;;;;;;;6.16;100.00;99386.72;5035491;28;20043;-66
2021/12/05 16:21:47;;;;;;;11.15;4.63;;;;;;;6.10;100.00;99387.28;5020836;28;20091;-66
2021/12/05 16:24:31;;;;;;;7.97;4.57;;;;;;;6.06;100.00;99387.69;5006926;28;20041;-66
2021/12/05 16:27:15;;;;;;;8.13;4.82;;;;;;;6.02;100.00;99387.13;5035648;28;20445;-66
2021/12/05 16:29:59;;;;;;;8.68;5.25;;;;;;;6.00;100.00;99394.38;5020598;28;20096;-65
2021/12/05 16:32:43;;;;;;;8.35;5.15;;;;;;;5.98;100.00;99398.97;5020353;28;20048;-64
2021/12/05 16:35:27;;;;;;;8.73;5.40;;;;;;;5.94;100.00;99386.97;5006005;28;20068;-65
2021/12/05 16:38:32;;;;;;;7.38;4.50;;;;;;;5.98;100.00;99393.66;5035383;28;20052;-66
2021/12/05 16:41:20;;;;;;;;;;;;;;;5.93;100.00;99403.81;5020621;28;20513;-66
2021/12/05 16:44:09;;;;;;;10.20;5.65;;;;;;;5.84;100.00;99411.72;5034262;28;20369;-66
2021/12/05 16:46:59;;;;;;;7.32;5.50;;;;;;;5.88;100.00;99411.34;5020355;28;20042;-66
2021/12/05 16:49:45;;;;;;;10.32;5.63;;;;;;;5.89;100.00;99407.72;5020198;28;20090;-65
2021/12/05 16:52:36;;;;;;;9.57;5.90;;;;;;;5.87;100.00;99414.91;5005959;28;20044;-65
2021/12/05 16:55:26;;;;;;;10.20;5.40;;;;;;;5.85;100.00;99422.16;5006788;28;20115;-65
2021/12/05 16:58:17;;;;;;;10.60;6.22;;;;;;;5.84;100.00;99414.38;5034685;28;20103;-66
2021/12/05 17:01:01;;;;;;;11.30;8.45;;;;;;;5.84;100.00;99412.56;5020290;28;20053;-65
2021/12/05 17:03:46;;;;;;;14.02;9.25;;;;;;;5.85;100.00;99414.22;5035048;28;20039;-66
2021/12/05 17:06:43;;;;;;;12.38;8.00;;;;;;;5.89;100.00;99418.28;5019533;28;20090;-64
2021/12/05 17:09:27;;;;;;;10.73;7.32;;;;;;;5.88;100.00;99415.78;5005768;28;20553;-66
2021/12/05 17:12:25;;;;;;;;;;;;;;;5.96;100.00;99414.09;5020260;28;20152;-66
2021/12/05 17:15:14;;;;;;;11.52;7.78;;;;;;;5.90;100.00;99419.97;5019674;28;20094;-66
2021/12/05 17:18:04;;;;;;;12.45;6.57;;;;;;;5.81;100.00;99426.06;5019797;28;20472;-66
2021/12/05 17:20:58;;;;;;;11.45;6.38;;;;;;;5.67;100.00;99425.56;5020014;28;20056;-65
2021/12/05 17:23:44;;;;;;;11.95;6.82;;;;;;;5.68;100.00;99417.50;5019639;28;20056;-65
2021/12/05 17:26:33;;;;;;;12.02;6.85;;;;;;;5.69;100.00;99419.16;5034432;28;20057;-65
2021/12/05 17:29:21;;;;;;;11.63;6.07;;;;;;;5.61;100.00;99434.00;5034355;28;20052;-66
2021/12/05 17:32:11;;;;;;;10.27;6.88;;;;;;;5.56;100.00;99442.34;5019388;28;20091;-66
2021/12/05 17:34:58;;;;;;;10.20;7.05;;;;;;;5.56;100.00;99447.63;5034323;28;20115;-66
2021/12/05 17:37:46;;;;;;;8.73;6.30;;;;;;;5.60;100.00;99438.47;5019160;28;20052;-66
2021/12/05 17:40:30;;;;;;;8.50;5.63;;;;;;;5.63;100.00;99448.78;5034130;28;20440;-66
2021/12/05 17:43:14;;;;;;;8.82;6.20;;;;;;;5.63;100.00;99459.34;5019200;28;20044;-66
2021/12/05 17:45:58;;;;;;;12.23;7.00;;;;;;;5.64;100.00;99463.66;5018423;28;20418;-66
2021/12/05 17:48:42;;;;;;;12.05;6.10;;;;;;;5.65;100.00;99462.69;5019079;28;20052;-66
2021/12/05 17:51:34;;;;;;;8.43;5.10;;;;;;;5.68;100.00;99462.44;5019126;28;20103;-66
2021/12/05 17:54:35;;;;;;;10.00;5.85;;;;;;;5.76;100.00;99470.53;5034235;28;20143;-65
2021/12/05 17:57:30;;;;;;;9.18;4.60;;;;;;;5.85;100.00;99480.34;5033573;28;20159;-66
2021/12/05 18:00:36;;;;;;;8.20;4.78;;;;;;;5.93;100.00;99480.53;5020201;28;20186;-66
2021/12/05 18:03:20;;;;;;;6.20;3.97;;;;;;;5.93;100.00;99488.47;5019037;28;20083;-66
2021/12/05 18:06:05;;;;;;;9.30;4.30;;;;;;;5.90;100.00;99490.53;5018792;28;20489;-65
2021/12/05 18:08:49;;;;;;;4.28;2.47;;;;;;;5.74;100.00;99503.38;5018723;28;20051;-65
2021/12/05 18:11:39;;;;;;;4.22;2.20;;;;;;;5.83;100.00;99502.63;5005160;28;20171;-65
2021/12/05 18:14:23;;;;;;;4.20;2.22;;;;;;;5.66;100.00;99504.03;5018583;28;20095;-66
2021/12/05 18:17:07;;;;;;;3.40;1.77;;;;;;;5.73;100.00;99513.13;5018316;28;20079;-66
2021/12/05 18:19:52;;;;;;;3.40;2.30;;;;;;;5.77;100.00;99509.22;5018724;28;20061;-65
2021/12/05 18:22:36;;;;;;;5.70;1.85;;;;;;;5.69;100.00;99509.06;5018519;28;20059;-66
2021/12/05 18:25:20;;;;;;;;;;;;;;;5.70;100.00;99516.03;5018870;28;20048;-66
2021/12/05 18:28:05;;;;;;;1.20;1.10;;;;;;;5.60;100.00;99511.66;5032115;28;19924;-66
2021/12/05 18:30:49;;;;;;;2.10;1.00;;;;;;;5.50;100.00;99522.19;5018427;28;20627;-66
2021/12/05 18:33:39;;;;;;;1.25;0.93;;;;;;;5.38;100.00;99517.94;5004247;28;20123;-64
2021/12/05 18:36:24;;;;;;;1.70;1.20;;;;;;;5.34;100.00;99520.97;5004610;28;20144;-65